Accueil
METAR-TAF:

METAR-TAF

Aéroports :

Baker City, Oregon, États-Unis

latitude: 44-50-14N, longitude: 117-48-33W, altitude: 1028 m

Observation

Le bulletin a été fait il y a 26 minutes, à 01:53 UTC
Vent 15 kt de nord-ouest
Température 15°C
Humidité 39%
Pression 1015 hPa
Visibilité: 16.1 km
Ciel clair

METAR: KBKE 200153Z AUTO 31015KT 10SM CLR 15/01 A2996 RMK AO2 SLP150 T01500006

Heure: 19:19 (02:19 UTC)

Prévision

Le bulletin a été fait il y a 2 heures et 58 minutes, à 23:21 UTC
Prévision valable du 20 à 00 UTC au 20 à 24 UTC
Vent 14 kt de nord-ouest avec des rafales jusqu'à 22 kt
Visibilité: 10 km
Nuages épars à une hauteur de 12000 ft
A partir de 20 à 0400 UTC
Vent 4 kt de direction variable
Visibilité: 10 km
Ciel clair

TAF: KBKE 192321Z 2000/2024 32014G22KT P6SM SCT120 FM200400 VRB04KT P6SM SKC

Observations et prévisions météorologiques de plus de 4000 aéroports (messages METAR et TAF).

Les stations disponibles sont représentées par des disques jaunes et rouges sur la carte.

Passer la souris dessus pour voir le nom de la station.

Cliquer dessus pour voir les observations et prévisions météorologiques.

Pour changer de carte: cliquez sur les boutons verts avec une croix noire pour zoomer, sur le bouton vert avec un tiret pour effectuer un zoom arrière, ou sur les flèches vertes pour les cartes adjacentes.


METAR-TAF: